sensor_id;sensor_type;location;lat;lon;timestamp;temperature;humidity
79016;DHT22;72726;44.842;37.556;2024-03-02T00:00:04;8.26;41.10
79016;DHT22;72726;44.842;37.556;2024-03-02T00:01:13;8.24;40.73
79016;DHT22;72726;44.842;37.556;2024-03-02T00:02:15;8.29;40.23
79016;DHT22;72726;44.842;37.556;2024-03-02T00:03:16;8.32;40.71
79016;DHT22;72726;44.842;37.556;2024-03-02T00:04:18;8.29;40.69
79016;DHT22;72726;44.842;37.556;2024-03-02T00:05:21;8.32;40.68
79016;DHT22;72726;44.842;37.556;2024-03-02T00:06:23;8.29;40.32
79016;DHT22;72726;44.842;37.556;2024-03-02T00:07:24;8.30;40.03
79016;DHT22;72726;44.842;37.556;2024-03-02T00:08:26;8.32;39.18
79016;DHT22;72726;44.842;37.556;2024-03-02T00:09:27;8.33;39.87
79016;DHT22;72726;44.842;37.556;2024-03-02T00:10:38;8.38;40.12
79016;DHT22;72726;44.842;37.556;2024-03-02T00:11:42;8.38;40.28
79016;DHT22;72726;44.842;37.556;2024-03-02T00:12:47;8.36;40.31
79016;DHT22;72726;44.842;37.556;2024-03-02T00:13:48;8.32;40.09
79016;DHT22;72726;44.842;37.556;2024-03-02T00:14:49;8.32;39.83
79016;DHT22;72726;44.842;37.556;2024-03-02T00:15:51;8.30;39.49
79016;DHT22;72726;44.842;37.556;2024-03-02T00:16:55;8.32;39.98
79016;DHT22;72726;44.842;37.556;2024-03-02T00:17:57;8.30;40.09
79016;DHT22;72726;44.842;37.556;2024-03-02T00:19:05;8.30;39.79
79016;DHT22;72726;44.842;37.556;2024-03-02T00:20:09;8.29;40.07
79016;DHT22;72726;44.842;37.556;2024-03-02T00:21:11;8.29;39.49
79016;DHT22;72726;44.842;37.556;2024-03-02T00:22:14;8.29;39.27
79016;DHT22;72726;44.842;37.556;2024-03-02T00:23:16;8.30;39.81
79016;DHT22;72726;44.842;37.556;2024-03-02T00:24:31;8.28;39.39
79016;DHT22;72726;44.842;37.556;2024-03-02T00:26:01;8.30;39.60
79016;DHT22;72726;44.842;37.556;2024-03-02T00:27:04;8.28;38.80
79016;DHT22;72726;44.842;37.556;2024-03-02T00:28:05;8.32;38.92
79016;DHT22;72726;44.842;37.556;2024-03-02T00:29:15;8.33;38.84
79016;DHT22;72726;44.842;37.556;2024-03-02T00:31:43;8.33;39.37
79016;DHT22;72726;44.842;37.556;2024-03-02T00:32:44;8.32;39.51
79016;DHT22;72726;44.842;37.556;2024-03-02T00:33:47;8.33;39.04
79016;DHT22;72726;44.842;37.556;2024-03-02T00:34:49;8.32;38.87
79016;DHT22;72726;44.842;37.556;2024-03-02T00:35:50;8.29;39.31
79016;DHT22;72726;44.842;37.556;2024-03-02T00:36:52;8.26;39.05
79016;DHT22;72726;44.842;37.556;2024-03-02T00:37:54;8.28;38.64
79016;DHT22;72726;44.842;37.556;2024-03-02T00:38:55;8.28;39.00
79016;DHT22;72726;44.842;37.556;2024-03-02T00:39:57;8.28;39.08
79016;DHT22;72726;44.842;37.556;2024-03-02T00:41:00;8.26;39.06
79016;DHT22;72726;44.842;37.556;2024-03-02T00:42:05;8.28;38.94
79016;DHT22;72726;44.842;37.556;2024-03-02T00:43:20;8.26;38.94
79016;DHT22;72726;44.842;37.556;2024-03-02T00:44:29;8.25;39.52
79016;DHT22;72726;44.842;37.556;2024-03-02T00:45:39;8.25;38.73
79016;DHT22;72726;44.842;37.556;2024-03-02T00:46:42;8.26;39.75
79016;DHT22;72726;44.842;37.556;2024-03-02T00:47:44;8.22;39.81
79016;DHT22;72726;44.842;37.556;2024-03-02T00:48:56;8.19;39.31
79016;DHT22;72726;44.842;37.556;2024-03-02T00:49:58;8.22;39.68
79016;DHT22;72726;44.842;37.556;2024-03-02T00:50:59;8.21;39.43
79016;DHT22;72726;44.842;37.556;2024-03-02T00:52:00;8.19;39.36
79016;DHT22;72726;44.842;37.556;2024-03-02T00:53:02;8.16;39.69
79016;DHT22;72726;44.842;37.556;2024-03-02T00:54:05;8.15;39.66
79016;DHT22;72726;44.842;37.556;2024-03-02T00:55:08;8.12;39.75
79016;DHT22;72726;44.842;37.556;2024-03-02T00:56:10;8.11;39.56
79016;DHT22;72726;44.842;37.556;2024-03-02T00:57:12;8.08;39.30
79016;DHT22;72726;44.842;37.556;2024-03-02T00:58:14;8.08;39.73
79016;DHT22;72726;44.842;37.556;2024-03-02T00:59:19;8.03;39.63
79016;DHT22;72726;44.842;37.556;2024-03-02T01:00:21;8.03;39.98
79016;DHT22;72726;44.842;37.556;2024-03-02T01:01:22;8.02;39.79
79016;DHT22;72726;44.842;37.556;2024-03-02T01:02:24;8.02;39.89
79016;DHT22;72726;44.842;37.556;2024-03-02T01:03:25;8.01;40.00
79016;DHT22;72726;44.842;37.556;2024-03-02T01:04:26;7.97;39.82
79016;DHT22;72726;44.842;37.556;2024-03-02T01:05:28;8.01;39.60
79016;DHT22;72726;44.842;37.556;2024-03-02T01:06:30;7.99;40.56
79016;DHT22;72726;44.842;37.556;2024-03-02T01:07:31;7.98;40.26
79016;DHT22;72726;44.842;37.556;2024-03-02T01:08:34;7.99;40.11
79016;DHT22;72726;44.842;37.556;2024-03-02T01:09:35;7.98;40.49
79016;DHT22;72726;44.842;37.556;2024-03-02T01:10:36;7.99;40.29
79016;DHT22;72726;44.842;37.556;2024-03-02T01:11:38;7.98;40.17
79016;DHT22;72726;44.842;37.556;2024-03-02T01:12:39;7.99;40.43
79016;DHT22;72726;44.842;37.556;2024-03-02T01:13:40;8.01;40.46
79016;DHT22;72726;44.842;37.556;2024-03-02T01:14:42;7.99;40.32
79016;DHT22;72726;44.842;37.556;2024-03-02T01:15:43;7.98;40.28
79016;DHT22;72726;44.842;37.556;2024-03-02T01:16:44;7.99;40.34
79016;DHT22;72726;44.842;37.556;2024-03-02T01:17:46;7.98;40.50
79016;DHT22;72726;44.842;37.556;2024-03-02T01:18:47;7.95;40.17
79016;DHT22;72726;44.842;37.556;2024-03-02T01:19:48;7.92;40.18
79016;DHT22;72726;44.842;37.556;2024-03-02T01:20:50;7.94;40.44
79016;DHT22;72726;44.842;37.556;2024-03-02T01:21:56;7.94;40.77
79016;DHT22;72726;44.842;37.556;2024-03-02T01:22:58;7.91;40.60
79016;DHT22;72726;44.842;37.556;2024-03-02T01:23:59;7.88;40.44
79016;DHT22;72726;44.842;37.556;2024-03-02T01:25:00;7.88;40.69
79016;DHT22;72726;44.842;37.556;2024-03-02T01:26:02;7.88;40.28
79016;DHT22;72726;44.842;37.556;2024-03-02T01:27:03;7.92;40.17
79016;DHT22;72726;44.842;37.556;2024-03-02T01:28:05;7.90;40.40
79016;DHT22;72726;44.842;37.556;2024-03-02T01:29:06;7.88;41.03
79016;DHT22;72726;44.842;37.556;2024-03-02T01:30:08;7.83;41.04
79016;DHT22;72726;44.842;37.556;2024-03-02T01:31:09;7.74;41.54
79016;DHT22;72726;44.842;37.556;2024-03-02T01:32:10;7.70;41.61
79016;DHT22;72726;44.842;37.556;2024-03-02T01:33:12;7.64;41.84
79016;DHT22;72726;44.842;37.556;2024-03-02T01:34:14;7.63;41.89
79016;DHT22;72726;44.842;37.556;2024-03-02T01:35:15;7.59;42.10
79016;DHT22;72726;44.842;37.556;2024-03-02T01:36:19;7.52;42.47
79016;DHT22;72726;44.842;37.556;2024-03-02T01:37:20;7.45;41.93
79016;DHT22;72726;44.842;37.556;2024-03-02T01:38:22;7.37;41.65
79016;DHT22;72726;44.842;37.556;2024-03-02T01:39:23;7.36;41.62
79016;DHT22;72726;44.842;37.556;2024-03-02T01:40:24;7.36;41.80
79016;DHT22;72726;44.842;37.556;2024-03-02T01:41:29;7.37;42.13
79016;DHT22;72726;44.842;37.556;2024-03-02T01:42:30;7.39;42.26
79016;DHT22;72726;44.842;37.556;2024-03-02T01:43:31;7.39;42.43
79016;DHT22;72726;44.842;37.556;2024-03-02T01:44:33;7.42;42.14
79016;DHT22;72726;44.842;37.556;2024-03-02T01:45:35;7.45;42.21
79016;DHT22;72726;44.842;37.556;2024-03-02T01:46:36;7.45;42.96
79016;DHT22;72726;44.842;37.556;2024-03-02T01:47:38;7.46;42.80
79016;DHT22;72726;44.842;37.556;2024-03-02T01:48:39;7.45;42.87
79016;DHT22;72726;44.842;37.556;2024-03-02T01:49:40;7.42;42.98
79016;DHT22;72726;44.842;37.556;2024-03-02T01:50:42;7.43;43.15
79016;DHT22;72726;44.842;37.556;2024-03-02T01:51:45;7.42;43.68
79016;DHT22;72726;44.842;37.556;2024-03-02T01:52:47;7.37;43.64
79016;DHT22;72726;44.842;37.556;2024-03-02T01:53:48;7.37;43.72
79016;DHT22;72726;44.842;37.556;2024-03-02T01:54:49;7.30;43.51
79016;DHT22;72726;44.842;37.556;2024-03-02T01:55:50;7.30;43.44
79016;DHT22;72726;44.842;37.556;2024-03-02T01:56:52;7.26;43.77
79016;DHT22;72726;44.842;37.556;2024-03-02T01:57:53;7.22;44.10
79016;DHT22;72726;44.842;37.556;2024-03-02T01:58:55;7.20;44.00
79016;DHT22;72726;44.842;37.556;2024-03-02T01:59:56;7.20;43.83
79016;DHT22;72726;44.842;37.556;2024-03-02T02:00:57;7.22;43.73
79016;DHT22;72726;44.842;37.556;2024-03-02T02:01:59;7.23;43.71
79016;DHT22;72726;44.842;37.556;2024-03-02T02:03:00;7.23;43.44
79016;DHT22;72726;44.842;37.556;2024-03-02T02:04:01;7.20;43.46
79016;DHT22;72726;44.842;37.556;2024-03-02T02:05:03;7.22;43.24
79016;DHT22;72726;44.842;37.556;2024-03-02T02:06:05;7.19;43.17
79016;DHT22;72726;44.842;37.556;2024-03-02T02:07:06;7.20;43.61
79016;DHT22;72726;44.842;37.556;2024-03-02T02:08:07;7.20;43.54
79016;DHT22;72726;44.842;37.556;2024-03-02T02:09:09;7.16;43.64
79016;DHT22;72726;44.842;37.556;2024-03-02T02:10:11;7.14;43.87
79016;DHT22;72726;44.842;37.556;2024-03-02T02:11:15;7.15;44.01
79016;DHT22;72726;44.842;37.556;2024-03-02T02:12:16;7.09;43.95
79016;DHT22;72726;44.842;37.556;2024-03-02T02:13:17;7.09;43.88
79016;DHT22;72726;44.842;37.556;2024-03-02T02:14:19;7.07;43.76
79016;DHT22;72726;44.842;37.556;2024-03-02T02:16:25;7.04;44.17
79016;DHT22;72726;44.842;37.556;2024-03-02T02:17:26;7.01;44.64
79016;DHT22;72726;44.842;37.556;2024-03-02T02:18:27;7.00;44.89
79016;DHT22;72726;44.842;37.556;2024-03-02T02:19:28;6.97;44.90
79016;DHT22;72726;44.842;37.556;2024-03-02T02:20:30;6.94;45.10
79016;DHT22;72726;44.842;37.556;2024-03-02T02:21:31;6.94;45.04
79016;DHT22;72726;44.842;37.556;2024-03-02T02:22:32;6.94;45.46
79016;DHT22;72726;44.842;37.556;2024-03-02T02:23:33;6.92;45.63
79016;DHT22;72726;44.842;37.556;2024-03-02T02:24:35;6.91;45.89
79016;DHT22;72726;44.842;37.556;2024-03-02T02:25:36;6.91;46.01
79016;DHT22;72726;44.842;37.556;2024-03-02T02:26:37;6.88;46.34
79016;DHT22;72726;44.842;37.556;2024-03-02T02:27:39;6.91;46.15
79016;DHT22;72726;44.842;37.556;2024-03-02T02:28:40;6.87;46.36
79016;DHT22;72726;44.842;37.556;2024-03-02T02:29:47;6.83;46.48
79016;DHT22;72726;44.842;37.556;2024-03-02T02:30:49;6.84;46.85
79016;DHT22;72726;44.842;37.556;2024-03-02T02:31:50;6.81;47.04
79016;DHT22;72726;44.842;37.556;2024-03-02T02:32:52;6.79;47.37
79016;DHT22;72726;44.842;37.556;2024-03-02T02:33:53;6.77;47.46
79016;DHT22;72726;44.842;37.556;2024-03-02T02:34:54;6.74;47.61
79016;DHT22;72726;44.842;37.556;2024-03-02T02:35:55;6.71;47.88
79016;DHT22;72726;44.842;37.556;2024-03-02T02:36:57;6.70;47.78
79016;DHT22;72726;44.842;37.556;2024-03-02T02:37:58;6.67;48.05
79016;DHT22;72726;44.842;37.556;2024-03-02T02:39:02;6.70;48.14
79016;DHT22;72726;44.842;37.556;2024-03-02T02:40:08;6.66;48.32
79016;DHT22;72726;44.842;37.556;2024-03-02T02:41:10;6.66;48.16
79016;DHT22;72726;44.842;37.556;2024-03-02T02:42:11;6.64;48.50
79016;DHT22;72726;44.842;37.556;2024-03-02T02:43:12;6.62;48.16
79016;DHT22;72726;44.842;37.556;2024-03-02T02:44:13;6.58;48.12
79016;DHT22;72726;44.842;37.556;2024-03-02T02:45:15;6.57;48.59
79016;DHT22;72726;44.842;37.556;2024-03-02T02:46:16;6.54;48.80
79016;DHT22;72726;44.842;37.556;2024-03-02T02:47:17;6.54;48.81
79016;DHT22;72726;44.842;37.556;2024-03-02T02:48:19;6.50;48.73
79016;DHT22;72726;44.842;37.556;2024-03-02T02:49:20;6.49;48.52
79016;DHT22;72726;44.842;37.556;2024-03-02T02:50:21;6.49;48.69
79016;DHT22;72726;44.842;37.556;2024-03-02T02:51:22;6.52;48.99
79016;DHT22;72726;44.842;37.556;2024-03-02T02:52:31;6.47;49.13
79016;DHT22;72726;44.842;37.556;2024-03-02T02:53:33;6.43;48.96
79016;DHT22;72726;44.842;37.556;2024-03-02T02:54:37;6.43;49.11
79016;DHT22;72726;44.842;37.556;2024-03-02T02:55:42;6.42;49.23
79016;DHT22;72726;44.842;37.556;2024-03-02T02:56:44;6.42;49.31
79016;DHT22;72726;44.842;37.556;2024-03-02T02:57:46;6.43;49.55
79016;DHT22;72726;44.842;37.556;2024-03-02T02:58:47;6.45;49.35
79016;DHT22;72726;44.842;37.556;2024-03-02T02:59:49;6.43;49.61
79016;DHT22;72726;44.842;37.556;2024-03-02T03:00:50;6.46;49.35
79016;DHT22;72726;44.842;37.556;2024-03-02T03:01:51;6.43;49.34
79016;DHT22;72726;44.842;37.556;2024-03-02T03:02:53;6.43;49.38
79016;DHT22;72726;44.842;37.556;2024-03-02T03:03:54;6.42;49.24
79016;DHT22;72726;44.842;37.556;2024-03-02T03:04:55;6.43;48.89
79016;DHT22;72726;44.842;37.556;2024-03-02T03:05:58;6.42;48.95
79016;DHT22;72726;44.842;37.556;2024-03-02T03:06:59;6.40;49.06
79016;DHT22;72726;44.842;37.556;2024-03-02T03:08:00;6.42;49.56
79016;DHT22;72726;44.842;37.556;2024-03-02T03:09:02;6.40;49.31
79016;DHT22;72726;44.842;37.556;2024-03-02T03:10:04;6.39;49.16
79016;DHT22;72726;44.842;37.556;2024-03-02T03:11:05;6.39;49.33
79016;DHT22;72726;44.842;37.556;2024-03-02T03:12:06;6.42;49.29
79016;DHT22;72726;44.842;37.556;2024-03-02T03:13:08;6.40;49.43
79016;DHT22;72726;44.842;37.556;2024-03-02T03:14:09;6.42;49.63
79016;DHT22;72726;44.842;37.556;2024-03-02T03:15:11;6.39;49.95
79016;DHT22;72726;44.842;37.556;2024-03-02T03:16:13;6.36;50.04
79016;DHT22;72726;44.842;37.556;2024-03-02T03:17:14;6.39;50.32
79016;DHT22;72726;44.842;37.556;2024-03-02T03:18:16;6.39;50.43
79016;DHT22;72726;44.842;37.556;2024-03-02T03:19:17;6.36;50.62
79016;DHT22;72726;44.842;37.556;2024-03-02T03:20:18;6.42;50.25
79016;DHT22;72726;44.842;37.556;2024-03-02T03:21:22;6.39;50.66
79016;DHT22;72726;44.842;37.556;2024-03-02T03:22:23;6.30;50.73
79016;DHT22;72726;44.842;37.556;2024-03-02T03:23:24;6.29;50.73
79016;DHT22;72726;44.842;37.556;2024-03-02T03:24:26;6.32;50.85
79016;DHT22;72726;44.842;37.556;2024-03-02T03:25:28;6.37;50.35
79016;DHT22;72726;44.842;37.556;2024-03-02T03:26:29;6.40;50.58
79016;DHT22;72726;44.842;37.556;2024-03-02T03:27:30;6.36;50.66
79016;DHT22;72726;44.842;37.556;2024-03-02T03:28:32;6.39;50.60
79016;DHT22;72726;44.842;37.556;2024-03-02T03:29:33;6.39;50.47
79016;DHT22;72726;44.842;37.556;2024-03-02T03:30:34;6.42;50.57
79016;DHT22;72726;44.842;37.556;2024-03-02T03:31:35;6.46;50.67
79016;DHT22;72726;44.842;37.556;2024-03-02T03:32:37;6.58;50.46
79016;DHT22;72726;44.842;37.556;2024-03-02T03:33:38;6.74;50.31
79016;DHT22;72726;44.842;37.556;2024-03-02T03:34:39;6.79;50.38
79016;DHT22;72726;44.842;37.556;2024-03-02T03:35:41;6.77;50.32
79016;DHT22;72726;44.842;37.556;2024-03-02T03:36:42;6.76;50.48
79016;DHT22;72726;44.842;37.556;2024-03-02T03:37:44;6.74;50.00
79016;DHT22;72726;44.842;37.556;2024-03-02T03:38:45;6.70;49.56
79016;DHT22;72726;44.842;37.556;2024-03-02T03:39:46;6.70;49.67
79016;DHT22;72726;44.842;37.556;2024-03-02T03:40:48;6.66;49.54
79016;DHT22;72726;44.842;37.556;2024-03-02T03:41:49;6.74;49.27
79016;DHT22;72726;44.842;37.556;2024-03-02T03:42:50;6.80;49.68
79016;DHT22;72726;44.842;37.556;2024-03-02T03:43:51;6.84;49.34
79016;DHT22;72726;44.842;37.556;2024-03-02T03:44:53;6.84;49.71
79016;DHT22;72726;44.842;37.556;2024-03-02T03:45:54;6.80;49.63
79016;DHT22;72726;44.842;37.556;2024-03-02T03:46:55;6.77;49.67
79016;DHT22;72726;44.842;37.556;2024-03-02T03:47:56;6.74;49.44
79016;DHT22;72726;44.842;37.556;2024-03-02T03:48:58;6.69;49.32
79016;DHT22;72726;44.842;37.556;2024-03-02T03:49:59;6.70;49.61
79016;DHT22;72726;44.842;37.556;2024-03-02T03:51:01;6.69;49.69
79016;DHT22;72726;44.842;37.556;2024-03-02T03:52:02;6.67;49.82
79016;DHT22;72726;44.842;37.556;2024-03-02T03:53:04;6.66;49.88
79016;DHT22;72726;44.842;37.556;2024-03-02T03:54:06;6.74;49.87
79016;DHT22;72726;44.842;37.556;2024-03-02T03:55:07;6.73;50.15
79016;DHT22;72726;44.842;37.556;2024-03-02T03:56:09;6.77;50.23
79016;DHT22;72726;44.842;37.556;2024-03-02T03:57:10;6.74;50.17
79016;DHT22;72726;44.842;37.556;2024-03-02T03:58:11;6.69;50.42
79016;DHT22;72726;44.842;37.556;2024-03-02T03:59:13;6.69;50.05
79016;DHT22;72726;44.842;37.556;2024-03-02T04:00:14;6.74;49.95
79016;DHT22;72726;44.842;37.556;2024-03-02T04:01:16;6.76;49.97
79016;DHT22;72726;44.842;37.556;2024-03-02T04:02:17;6.70;49.82
79016;DHT22;72726;44.842;37.556;2024-03-02T04:03:18;6.67;50.03
79016;DHT22;72726;44.842;37.556;2024-03-02T04:04:20;6.69;49.84
79016;DHT22;72726;44.842;37.556;2024-03-02T04:05:21;6.67;49.97
79016;DHT22;72726;44.842;37.556;2024-03-02T04:06:22;6.64;50.20
79016;DHT22;72726;44.842;37.556;2024-03-02T04:07:23;6.63;50.36
79016;DHT22;72726;44.842;37.556;2024-03-02T04:08:25;6.58;50.25
79016;DHT22;72726;44.842;37.556;2024-03-02T04:09:26;6.62;50.29
79016;DHT22;72726;44.842;37.556;2024-03-02T04:10:27;6.58;50.43
79016;DHT22;72726;44.842;37.556;2024-03-02T04:11:29;6.56;50.50
79016;DHT22;72726;44.842;37.556;2024-03-02T04:12:31;6.53;50.32
79016;DHT22;72726;44.842;37.556;2024-03-02T04:13:32;6.47;50.39
79016;DHT22;72726;44.842;37.556;2024-03-02T04:14:34;6.52;50.27
79016;DHT22;72726;44.842;37.556;2024-03-02T04:15:35;6.47;50.39
79016;DHT22;72726;44.842;37.556;2024-03-02T04:16:36;6.50;50.41
79016;DHT22;72726;44.842;37.556;2024-03-02T04:17:37;6.47;50.20
79016;DHT22;72726;44.842;37.556;2024-03-02T04:18:39;6.46;50.31
79016;DHT22;72726;44.842;37.556;2024-03-02T04:19:40;6.43;50.29
79016;DHT22;72726;44.842;37.556;2024-03-02T04:20:42;6.45;50.70
79016;DHT22;72726;44.842;37.556;2024-03-02T04:21:43;6.45;50.46
79016;DHT22;72726;44.842;37.556;2024-03-02T04:22:44;6.45;50.60
79016;DHT22;72726;44.842;37.556;2024-03-02T04:23:46;6.42;50.38
79016;DHT22;72726;44.842;37.556;2024-03-02T04:24:48;6.45;50.67
79016;DHT22;72726;44.842;37.556;2024-03-02T04:25:49;6.40;50.87
79016;DHT22;72726;44.842;37.556;2024-03-02T04:26:51;6.39;51.27
79016;DHT22;72726;44.842;37.556;2024-03-02T04:27:52;6.39;50.93
79016;DHT22;72726;44.842;37.556;2024-03-02T04:28:53;6.37;50.64
79016;DHT22;72726;44.842;37.556;2024-03-02T04:29:55;6.39;50.04
79016;DHT22;72726;44.842;37.556;2024-03-02T04:30:56;6.43;49.97
79016;DHT22;72726;44.842;37.556;2024-03-02T04:31:57;6.47;49.96
79016;DHT22;72726;44.842;37.556;2024-03-02T04:32:58;6.54;49.45
79016;DHT22;72726;44.842;37.556;2024-03-02T04:33:59;6.63;49.39
79016;DHT22;72726;44.842;37.556;2024-03-02T04:35:01;6.66;49.29
79016;DHT22;72726;44.842;37.556;2024-03-02T04:36:02;6.63;49.55
79016;DHT22;72726;44.842;37.556;2024-03-02T04:37:03;6.69;49.81
79016;DHT22;72726;44.842;37.556;2024-03-02T04:38:05;6.70;49.78
79016;DHT22;72726;44.842;37.556;2024-03-02T04:39:06;6.71;49.49
79016;DHT22;72726;44.842;37.556;2024-03-02T04:40:11;6.76;49.63
79016;DHT22;72726;44.842;37.556;2024-03-02T04:41:12;6.73;50.06
79016;DHT22;72726;44.842;37.556;2024-03-02T04:42:13;6.73;50.31
79016;DHT22;72726;44.842;37.556;2024-03-02T04:43:20;6.71;50.49
79016;DHT22;72726;44.842;37.556;2024-03-02T04:44:21;6.73;49.73
79016;DHT22;72726;44.842;37.556;2024-03-02T04:45:23;6.74;49.69
79016;DHT22;72726;44.842;37.556;2024-03-02T04:46:24;6.73;49.77
79016;DHT22;72726;44.842;37.556;2024-03-02T04:47:26;6.76;49.64
79016;DHT22;72726;44.842;37.556;2024-03-02T04:48:28;6.79;49.53
79016;DHT22;72726;44.842;37.556;2024-03-02T04:49:29;6.81;49.34
79016;DHT22;72726;44.842;37.556;2024-03-02T04:50:31;6.85;49.22
79016;DHT22;72726;44.842;37.556;2024-03-02T04:51:32;6.90;48.78
79016;DHT22;72726;44.842;37.556;2024-03-02T04:52:33;6.95;49.70
79016;DHT22;72726;44.842;37.556;2024-03-02T04:53:34;7.00;49.45
79016;DHT22;72726;44.842;37.556;2024-03-02T04:54:36;7.00;48.90
79016;DHT22;72726;44.842;37.556;2024-03-02T04:55:57;7.05;48.61
79016;DHT22;72726;44.842;37.556;2024-03-02T04:57:24;7.11;48.35
79016;DHT22;72726;44.842;37.556;2024-03-02T04:58:26;7.12;49.19
79016;DHT22;72726;44.842;37.556;2024-03-02T04:59:27;7.14;48.45
79016;DHT22;72726;44.842;37.556;2024-03-02T05:00:28;7.19;48.37
79016;DHT22;72726;44.842;37.556;2024-03-02T05:01:30;7.23;48.38
79016;DHT22;72726;44.842;37.556;2024-03-02T05:02:31;7.26;48.84
79016;DHT22;72726;44.842;37.556;2024-03-02T05:03:32;7.26;48.39
79016;DHT22;72726;44.842;37.556;2024-03-02T05:04:35;7.29;48.18
79016;DHT22;72726;44.842;37.556;2024-03-02T05:05:37;7.36;47.24
79016;DHT22;72726;44.842;37.556;2024-03-02T05:06:39;7.39;47.60
79016;DHT22;72726;44.842;37.556;2024-03-02T05:07:44;7.43;47.75
79016;DHT22;72726;44.842;37.556;2024-03-02T05:08:50;7.46;48.40
79016;DHT22;72726;44.842;37.556;2024-03-02T05:09:52;7.50;47.75
79016;DHT22;72726;44.842;37.556;2024-03-02T05:10:53;7.50;48.45
79016;DHT22;72726;44.842;37.556;2024-03-02T05:11:54;7.52;48.98
79016;DHT22;72726;44.842;37.556;2024-03-02T05:13:14;7.57;48.17
79016;DHT22;72726;44.842;37.556;2024-03-02T05:14:15;7.57;47.99
79016;DHT22;72726;44.842;37.556;2024-03-02T05:15:16;7.57;48.92
79016;DHT22;72726;44.842;37.556;2024-03-02T05:16:18;7.60;47.90
79016;DHT22;72726;44.842;37.556;2024-03-02T05:17:19;7.59;48.04
79016;DHT22;72726;44.842;37.556;2024-03-02T05:18:20;7.63;47.58
79016;DHT22;72726;44.842;37.556;2024-03-02T05:19:24;7.69;47.34
79016;DHT22;72726;44.842;37.556;2024-03-02T05:20:26;7.73;47.29
79016;DHT22;72726;44.842;37.556;2024-03-02T05:21:27;7.75;49.72
79016;DHT22;72726;44.842;37.556;2024-03-02T05:22:28;7.75;47.86
79016;DHT22;72726;44.842;37.556;2024-03-02T05:23:29;7.84;46.99
79016;DHT22;72726;44.842;37.556;2024-03-02T05:24:37;7.87;47.09
79016;DHT22;72726;44.842;37.556;2024-03-02T05:25:38;7.98;46.47
79016;DHT22;72726;44.842;37.556;2024-03-02T05:26:40;8.03;46.78
79016;DHT22;72726;44.842;37.556;2024-03-02T05:27:41;8.09;46.25
79016;DHT22;72726;44.842;37.556;2024-03-02T05:28:42;8.19;45.76
79016;DHT22;72726;44.842;37.556;2024-03-02T05:29:44;8.25;45.58
79016;DHT22;72726;44.842;37.556;2024-03-02T05:30:45;8.35;44.97
79016;DHT22;72726;44.842;37.556;2024-03-02T05:31:48;8.39;45.23
79016;DHT22;72726;44.842;37.556;2024-03-02T05:32:49;8.45;45.63
79016;DHT22;72726;44.842;37.556;2024-03-02T05:33:50;8.46;45.53
79016;DHT22;72726;44.842;37.556;2024-03-02T05:34:53;8.53;45.07
79016;DHT22;72726;44.842;37.556;2024-03-02T05:35:56;8.57;45.48
79016;DHT22;72726;44.842;37.556;2024-03-02T05:36:57;8.60;45.27
79016;DHT22;72726;44.842;37.556;2024-03-02T05:37:58;8.67;44.41
79016;DHT22;72726;44.842;37.556;2024-03-02T05:39:00;8.73;44.58
79016;DHT22;72726;44.842;37.556;2024-03-02T05:40:01;8.77;43.98
79016;DHT22;72726;44.842;37.556;2024-03-02T05:41:03;8.81;45.12
79016;DHT22;72726;44.842;37.556;2024-03-02T05:42:05;8.88;44.07
79016;DHT22;72726;44.842;37.556;2024-03-02T05:43:07;8.91;44.34
79016;DHT22;72726;44.842;37.556;2024-03-02T05:44:08;8.97;44.48
79016;DHT22;72726;44.842;37.556;2024-03-02T05:45:10;9.05;43.03
79016;DHT22;72726;44.842;37.556;2024-03-02T05:46:11;9.11;42.74
79016;DHT22;72726;44.842;37.556;2024-03-02T05:47:12;9.19;42.87
79016;DHT22;72726;44.842;37.556;2024-03-02T05:48:19;9.19;43.44
79016;DHT22;72726;44.842;37.556;2024-03-02T05:49:20;9.23;43.80
79016;DHT22;72726;44.842;37.556;2024-03-02T05:50:22;9.29;42.64
79016;DHT22;72726;44.842;37.556;2024-03-02T05:51:29;9.33;43.06
79016;DHT22;72726;44.842;37.556;2024-03-02T05:52:30;9.40;43.82
79016;DHT22;72726;44.842;37.556;2024-03-02T05:53:31;9.43;43.06
79016;DHT22;72726;44.842;37.556;2024-03-02T05:54:33;9.49;42.27
79016;DHT22;72726;44.842;37.556;2024-03-02T05:55:34;9.51;42.57
79016;DHT22;72726;44.842;37.556;2024-03-02T05:56:35;9.57;41.88
79016;DHT22;72726;44.842;37.556;2024-03-02T05:57:36;9.61;42.00
79016;DHT22;72726;44.842;37.556;2024-03-02T05:58:44;9.69;40.32
79016;DHT22;72726;44.842;37.556;2024-03-02T06:00:04;9.78;39.80
79016;DHT22;72726;44.842;37.556;2024-03-02T06:01:13;9.80;39.21
79016;DHT22;72726;44.842;37.556;2024-03-02T06:02:14;9.88;40.22
79016;DHT22;72726;44.842;37.556;2024-03-02T06:03:16;9.93;39.84
79016;DHT22;72726;44.842;37.556;2024-03-02T06:04:17;9.94;40.41
79016;DHT22;72726;44.842;37.556;2024-03-02T06:05:18;9.98;40.24
79016;DHT22;72726;44.842;37.556;2024-03-02T06:06:19;10.01;39.81
79016;DHT22;72726;44.842;37.556;2024-03-02T06:07:22;10.06;39.55
79016;DHT22;72726;44.842;37.556;2024-03-02T06:08:23;10.11;39.27
79016;DHT22;72726;44.842;37.556;2024-03-02T06:09:24;10.11;40.09
79016;DHT22;72726;44.842;37.556;2024-03-02T06:10:26;10.16;40.54
79016;DHT22;72726;44.842;37.556;2024-03-02T06:11:27;10.23;39.68
79016;DHT22;72726;44.842;37.556;2024-03-02T06:12:31;10.25;39.74
79016;DHT22;72726;44.842;37.556;2024-03-02T06:13:33;10.29;39.97
79016;DHT22;72726;44.842;37.556;2024-03-02T06:14:34;10.36;41.06
79016;DHT22;72726;44.842;37.556;2024-03-02T06:15:36;10.40;40.71
79016;DHT22;72726;44.842;37.556;2024-03-02T06:16:37;10.46;39.36
79016;DHT22;72726;44.842;37.556;2024-03-02T06:17:38;10.50;40.57
79016;DHT22;72726;44.842;37.556;2024-03-02T06:18:39;10.57;40.51
79016;DHT22;72726;44.842;37.556;2024-03-02T06:19:41;10.66;40.67
79016;DHT22;72726;44.842;37.556;2024-03-02T06:20:42;10.73;40.53
79016;DHT22;72726;44.842;37.556;2024-03-02T06:21:43;10.77;40.82
79016;DHT22;72726;44.842;37.556;2024-03-02T06:22:45;10.85;39.96
79016;DHT22;72726;44.842;37.556;2024-03-02T06:23:46;10.87;39.71
79016;DHT22;72726;44.842;37.556;2024-03-02T06:24:48;10.95;38.17
79016;DHT22;72726;44.842;37.556;2024-03-02T06:25:49;10.97;38.15
79016;DHT22;72726;44.842;37.556;2024-03-02T06:26:50;11.04;38.39
79016;DHT22;72726;44.842;37.556;2024-03-02T06:27:52;11.10;38.27
79016;DHT22;72726;44.842;37.556;2024-03-02T06:28:53;11.16;37.88
79016;DHT22;72726;44.842;37.556;2024-03-02T06:29:55;11.21;37.81
79016;DHT22;72726;44.842;37.556;2024-03-02T06:30:57;11.28;37.41
79016;DHT22;72726;44.842;37.556;2024-03-02T06:31:58;11.38;38.14
79016;DHT22;72726;44.842;37.556;2024-03-02T06:32:59;11.44;38.26
79016;DHT22;72726;44.842;37.556;2024-03-02T06:34:00;11.52;38.14
79016;DHT22;72726;44.842;37.556;2024-03-02T06:35:02;11.57;38.04